Wind From: 11-12-2017 10:04 Until: 12-12-2017 06:00 warning for: Wind Level: Orange info button

Power and phone distribution networks may be disrupted for relatively long periods., Roofs and chimneys can be damaged. , Tree branches may break. , Vehicles can be deported. , Traffic may be disrupted, particularly on secondary roads in forest areas. Limit your trips. , Limit your speed in highway driving, especially if you drive a vehicle or hitch sensitive to wind. , Do not go for walks in forests or along the coast., In town, be vigilant against possible falling objects., Do not work on roofs and do not touch any electrical line fallen on the ground., Store or secure sensitive objects to wind or likely to be damaged., Always install power generators outside buildings. 


Meteo18 Weather Cam more information Meteo18 Weather Cam


Thunder radar more information blitzortung!


Rain radar more information rain snow radar


Visit our other weather sites:

Template documentation
and downloads

And another site



Weather Underground History page Text

Daily Summary for August 27, 2017 Units:  Both    English   Metric
« Previous Day
Next Day »
Daily Weekly Monthly Yearly Custom
  High: Low: Average:
Temperature: 90.1 °F /  32.3 °C 63.1 °F /  17.3 °C 77 °F /  25 °C
Dew Point: 68.5 °F /  20.3 °C 58.6 °F /  14.8 °C 64.8 °F /  18.2 °C
Humidity: 93 % 35 % 68 %
Wind Speed: 8 mph /  12.9 km/h - 1.9 mph /  3.1 km/h
Wind Gust: 16 mph /  25.7 km/h - -
Wind:- - South
Pressure: 30.1 in /  1018.5 hPa 30 in /  1016.1 hPa -
Precipitation: 0 in /  0.0 mm    
Historical Graphs
 
 
Tabular Data for August 27, 2017
Time Temperature Dew Point Pressure Wind Wind Speed Wind Gust Humidity Rainfall Rate (Hourly)
00:02 74.1 °F /  23.4 °C 66 °F /  18.9 °C 30 in /  1016.5 hPa NNW 4 mph /  6.4 km/h 6 mph /  9.7 km/h 76 % 0 in /  0.0 mm
00:12 73.9 °F /  23.3 °C 65.8 °F /  18.8 °C 30 in /  1016.5 hPa NNW 3 mph /  4.8 km/h 6 mph /  9.7 km/h 76 % 0 in /  0.0 mm
00:17 73.8 °F /  23.2 °C 65.7 °F /  18.7 °C 30 in /  1016.5 hPa NW 2 mph /  3.2 km/h 6 mph /  9.7 km/h 76 % 0 in /  0.0 mm
00:22 73.8 °F /  23.2 °C 66 °F /  18.9 °C 30 in /  1016.5 hPa NNW 2 mph /  3.2 km/h 5 mph /  8.0 km/h 77 % 0 in /  0.0 mm
00:32 73.6 °F /  23.1 °C 65.8 °F /  18.8 °C 30 in /  1016.5 hPa NNW 2 mph /  3.2 km/h 5 mph /  8.0 km/h 77 % 0 in /  0.0 mm
00:37 73.6 °F /  23.1 °C 65.8 °F /  18.8 °C 30 in /  1016.5 hPa North 4 mph /  6.4 km/h 5 mph /  8.0 km/h 77 % 0 in /  0.0 mm
00:42 73.4 °F /  23.0 °C 65.7 °F /  18.7 °C 30 in /  1016.5 hPa NNW 3 mph /  4.8 km/h 5 mph /  8.0 km/h 77 % 0 in /  0.0 mm
00:52 73.2 °F /  22.9 °C 65.7 °F /  18.7 °C 30 in /  1016.1 hPa NNW 2 mph /  3.2 km/h 5 mph /  8.0 km/h 77 % 0 in /  0.0 mm
00:57 73.2 °F /  22.9 °C 66 °F /  18.9 °C 30 in /  1016.1 hPa NNE 1 mph /  1.6 km/h 5 mph /  8.0 km/h 78 % 0 in /  0.0 mm
01:02 73 °F /  22.8 °C 65.8 °F /  18.8 °C 30 in /  1016.1 hPa NNW 1 mph /  1.6 km/h 5 mph /  8.0 km/h 78 % 0 in /  0.0 mm
01:12 73 °F /  22.8 °C 65.8 °F /  18.8 °C 30 in /  1016.1 hPa North 1 mph /  1.6 km/h 5 mph /  8.0 km/h 78 % 0 in /  0.0 mm
01:17 73 °F /  22.8 °C 65.8 °F /  18.8 °C 30 in /  1016.5 hPa NNW 2 mph /  3.2 km/h 5 mph /  8.0 km/h 78 % 0 in /  0.0 mm
01:22 73 °F /  22.8 °C 65.5 °F /  18.6 °C 30 in /  1016.1 hPa NNE 3 mph /  4.8 km/h 5 mph /  8.0 km/h 77 % 0 in /  0.0 mm
01:32 73.2 °F /  22.9 °C 65.7 °F /  18.7 °C 30 in /  1016.1 hPa NNW 2 mph /  3.2 km/h 6 mph /  9.7 km/h 77 % 0 in /  0.0 mm
01:37 73.2 °F /  22.9 °C 65.7 °F /  18.7 °C 30 in /  1016.1 hPa NNE 2 mph /  3.2 km/h 6 mph /  9.7 km/h 77 % 0 in /  0.0 mm
01:42 73.2 °F /  22.9 °C 65.7 °F /  18.7 °C 30 in /  1016.1 hPa NNW 3 mph /  4.8 km/h 6 mph /  9.7 km/h 77 % 0 in /  0.0 mm
01:47 73.2 °F /  22.9 °C 65.7 °F /  18.7 °C 30 in /  1016.1 hPa NNW 4 mph /  6.4 km/h 6 mph /  9.7 km/h 77 % 0 in /  0.0 mm
01:52 73 °F /  22.8 °C 65.5 °F /  18.6 °C 30 in /  1016.1 hPa NNE 3 mph /  4.8 km/h 6 mph /  9.7 km/h 77 % 0 in /  0.0 mm
01:57 73 °F /  22.8 °C 65.5 °F /  18.6 °C 30 in /  1016.1 hPa NNW 2 mph /  3.2 km/h 6 mph /  9.7 km/h 77 % 0 in /  0.0 mm
02:02 72.9 °F /  22.7 °C 65.3 °F /  18.5 °C 30 in /  1016.1 hPa NNW 3 mph /  4.8 km/h 6 mph /  9.7 km/h 77 % 0 in /  0.0 mm
02:12 72.5 °F /  22.5 °C 65.3 °F /  18.5 °C 30 in /  1016.5 hPa Calm   5 mph /  8.0 km/h 78 % 0 in /  0.0 mm
02:17 72.3 °F /  22.4 °C 65.1 °F /  18.4 °C 30 in /  1016.5 hPa Calm   4 mph /  6.4 km/h 78 % 0 in /  0.0 mm
02:22 72.1 °F /  22.3 °C 64.9 °F /  18.3 °C 30 in /  1016.1 hPa NNE 1 mph /  1.6 km/h 4 mph /  6.4 km/h 78 % 0 in /  0.0 mm
02:32 72 °F /  22.2 °C 65.1 °F /  18.4 °C 30 in /  1016.1 hPa NNE 2 mph /  3.2 km/h 3 mph /  4.8 km/h 79 % 0 in /  0.0 mm
02:37 72 °F /  22.2 °C 64.8 °F /  18.2 °C 30 in /  1016.1 hPa NE 1 mph /  1.6 km/h 4 mph /  6.4 km/h 78 % 0 in /  0.0 mm
02:42 71.8 °F /  22.1 °C 64.9 °F /  18.3 °C 30 in /  1016.1 hPa Calm   4 mph /  6.4 km/h 79 % 0 in /  0.0 mm
02:52 71.1 °F /  21.7 °C 64.2 °F /  17.9 °C 30 in /  1016.5 hPa WNW 1 mph /  1.6 km/h 4 mph /  6.4 km/h 79 % 0 in /  0.0 mm
02:57 70.9 °F /  21.6 °C 64.4 °F /  18.0 °C 30 in /  1016.5 hPa NNW 2 mph /  3.2 km/h 2 mph /  3.2 km/h 80 % 0 in /  0.0 mm
03:02 71.2 °F /  21.8 °C 64.4 °F /  18.0 °C 30 in /  1016.5 hPa NW 3 mph /  4.8 km/h 3 mph /  4.8 km/h 79 % 0 in /  0.0 mm
03:07 71.2 °F /  21.8 °C 64.4 °F /  18.0 °C 30 in /  1016.5 hPa NW 3 mph /  4.8 km/h 3 mph /  4.8 km/h 79 % 0 in /  0.0 mm
03:12 71.4 °F /  21.9 °C 64.6 °F /  18.1 °C 30 in /  1016.5 hPa North 2 mph /  3.2 km/h 3 mph /  4.8 km/h 79 % 0 in /  0.0 mm
03:17 71.4 °F /  21.9 °C 64.6 °F /  18.1 °C 30 in /  1016.5 hPa NW 1 mph /  1.6 km/h 4 mph /  6.4 km/h 79 % 0 in /  0.0 mm
03:22 71.2 °F /  21.8 °C 64.4 °F /  18.0 °C 30 in /  1016.5 hPa North 2 mph /  3.2 km/h 4 mph /  6.4 km/h 79 % 0 in /  0.0 mm
03:32 70.7 °F /  21.5 °C 63.9 °F /  17.7 °C 30 in /  1016.5 hPa Calm   3 mph /  4.8 km/h 79 % 0 in /  0.0 mm
03:37 70.3 °F /  21.3 °C 63.9 °F /  17.7 °C 30 in /  1016.5 hPa NNW 1 mph /  1.6 km/h 3 mph /  4.8 km/h 80 % 0 in /  0.0 mm
03:42 70.2 °F /  21.2 °C 64 °F /  17.8 °C 30 in /  1016.5 hPa NNE 3 mph /  4.8 km/h 3 mph /  4.8 km/h 81 % 0 in /  0.0 mm
03:47 70.2 °F /  21.2 °C 64 °F /  17.8 °C 30 in /  1016.5 hPa Calm   3 mph /  4.8 km/h 81 % 0 in /  0.0 mm
03:52 69.8 °F /  21.0 °C 63.7 °F /  17.6 °C 30 in /  1016.5 hPa North 1 mph /  1.6 km/h 3 mph /  4.8 km/h 81 % 0 in /  0.0 mm
03:57 69.6 °F /  20.9 °C 63.9 °F /  17.7 °C 30 in /  1016.5 hPa North 1 mph /  1.6 km/h 3 mph /  4.8 km/h 82 % 0 in /  0.0 mm
04:02 69.6 °F /  20.9 °C 63.9 °F /  17.7 °C 30 in /  1016.1 hPa NE 1 mph /  1.6 km/h 3 mph /  4.8 km/h 82 % 0 in /  0.0 mm
04:07 69.4 °F /  20.8 °C 63.7 °F /  17.6 °C 30 in /  1016.5 hPa Calm   2 mph /  3.2 km/h 82 % 0 in /  0.0 mm
04:12 69.4 °F /  20.8 °C 63.7 °F /  17.6 °C 30 in /  1016.5 hPa Calm   2 mph /  3.2 km/h 82 % 0 in /  0.0 mm
04:22 69.1 °F /  20.6 °C 63.7 °F /  17.6 °C 30 in /  1016.5 hPa NNE 2 mph /  3.2 km/h 3 mph /  4.8 km/h 83 % 0 in /  0.0 mm
04:32 68.9 °F /  20.5 °C 63.5 °F /  17.5 °C 30 in /  1016.1 hPa North 1 mph /  1.6 km/h 3 mph /  4.8 km/h 83 % 0 in /  0.0 mm
04:37 69.1 °F /  20.6 °C 63.7 °F /  17.6 °C 30 in /  1016.1 hPa Calm   2 mph /  3.2 km/h 83 % 0 in /  0.0 mm
04:42 69.1 °F /  20.6 °C 63.7 °F /  17.6 °C 30 in /  1016.1 hPa Calm   2 mph /  3.2 km/h 83 % 0 in /  0.0 mm
04:47 68.9 °F /  20.5 °C 63.5 °F /  17.5 °C 30 in /  1016.1 hPa Calm   2 mph /  3.2 km/h 83 % 0 in /  0.0 mm
04:52 68.5 °F /  20.3 °C 63.1 °F /  17.3 °C 30 in /  1016.1 hPa Calm   2 mph /  3.2 km/h 83 % 0 in /  0.0 mm
05:02 68.4 °F /  20.2 °C 63.3 °F /  17.4 °C 30 in /  1016.1 hPa Calm   2 mph /  3.2 km/h 84 % 0 in /  0.0 mm
05:12 68 °F /  20.0 °C 63 °F /  17.2 °C 30 in /  1016.1 hPa Calm   2 mph /  3.2 km/h 84 % 0 in /  0.0 mm
05:17 67.8 °F /  19.9 °C 63.1 °F /  17.3 °C 30 in /  1016.1 hPa Calm   1 mph /  1.6 km/h 85 % 0 in /  0.0 mm
05:22 67.6 °F /  19.8 °C 63 °F /  17.2 °C 30 in /  1016.1 hPa Calm   1 mph /  1.6 km/h 85 % 0 in /  0.0 mm
05:32 67.5 °F /  19.7 °C 63.1 °F /  17.3 °C 30 in /  1016.1 hPa Calm     86 % 0 in /  0.0 mm
05:37 67.1 °F /  19.5 °C 62.8 °F /  17.1 °C 30 in /  1016.1 hPa Calm     86 % 0 in /  0.0 mm
05:42 66.4 °F /  19.1 °C 62.4 °F /  16.9 °C 30 in /  1016.1 hPa Calm     87 % 0 in /  0.0 mm
05:47 65.8 °F /  18.8 °C 62.4 °F /  16.9 °C 30 in /  1016.1 hPa Calm     89 % 0 in /  0.0 mm
05:52 65.7 °F /  18.7 °C 62.2 °F /  16.8 °C 30 in /  1016.1 hPa Calm     89 % 0 in /  0.0 mm
06:02 65.1 °F /  18.4 °C 62.1 °F /  16.7 °C 30 in /  1016.1 hPa Calm     90 % 0 in /  0.0 mm
06:07 65.1 °F /  18.4 °C 62.1 °F /  16.7 °C 30 in /  1016.5 hPa Calm     90 % 0 in /  0.0 mm
06:12 65.1 °F /  18.4 °C 62.4 °F /  16.9 °C 30 in /  1016.5 hPa Calm     91 % 0 in /  0.0 mm
06:17 64.9 °F /  18.3 °C 62.2 °F /  16.8 °C 30 in /  1016.5 hPa Calm     91 % 0 in /  0.0 mm
06:22 64.9 °F /  18.3 °C 62.2 °F /  16.8 °C 30 in /  1016.5 hPa Calm     91 % 0 in /  0.0 mm
06:32 64.6 °F /  18.1 °C 61.9 °F /  16.6 °C 30 in /  1016.5 hPa Calm     91 % 0 in /  0.0 mm
06:42 64.4 °F /  18.0 °C 62.1 °F /  16.7 °C 30 in /  1016.5 hPa Calm     92 % 0 in /  0.0 mm
06:47 64.6 °F /  18.1 °C 62.2 °F /  16.8 °C 30 in /  1016.5 hPa Calm     92 % 0 in /  0.0 mm
06:52 64.2 °F /  17.9 °C 61.9 °F /  16.6 °C 30 in /  1016.5 hPa Calm     92 % 0 in /  0.0 mm
07:02 64.2 °F /  17.9 °C 61.9 °F /  16.6 °C 30 in /  1016.5 hPa Calm     92 % 0 in /  0.0 mm
07:12 64 °F /  17.8 °C 61.7 °F /  16.5 °C 30 in /  1016.5 hPa Calm   2 mph /  3.2 km/h 92 % 0 in /  0.0 mm
07:17 63.9 °F /  17.7 °C 61.5 °F /  16.4 °C 30 in /  1016.8 hPa Calm   2 mph /  3.2 km/h 92 % 0 in /  0.0 mm
07:22 63.9 °F /  17.7 °C 61.5 °F /  16.4 °C 30 in /  1016.8 hPa Calm   2 mph /  3.2 km/h 92 % 0 in /  0.0 mm
07:32 63.5 °F /  17.5 °C 61.2 °F /  16.2 °C 30 in /  1016.8 hPa Calm   3 mph /  4.8 km/h 92 % 0 in /  0.0 mm
07:42 63.3 °F /  17.4 °C 61.3 °F /  16.3 °C 30 in /  1016.8 hPa Calm   2 mph /  3.2 km/h 93 % 0 in /  0.0 mm
07:47 63.1 °F /  17.3 °C 61.2 °F /  16.2 °C 30 in /  1016.8 hPa Calm   2 mph /  3.2 km/h 93 % 0 in /  0.0 mm
07:52 63.5 °F /  17.5 °C 61.5 °F /  16.4 °C 30 in /  1016.8 hPa Calm   1 mph /  1.6 km/h 93 % 0 in /  0.0 mm
07:57 64 °F /  17.8 °C 62.1 °F /  16.7 °C 30 in /  1016.8 hPa Calm   1 mph /  1.6 km/h 93 % 0 in /  0.0 mm
08:02 64.6 °F /  18.1 °C 62.4 °F /  16.9 °C 30 in /  1017.2 hPa Calm   1 mph /  1.6 km/h 93 % 0 in /  0.0 mm
08:07 64.9 °F /  18.3 °C 62.6 °F /  17.0 °C 30 in /  1016.8 hPa Calm   1 mph /  1.6 km/h 92 % 0 in /  0.0 mm
08:12 65.1 °F /  18.4 °C 62.4 °F /  16.9 °C 30 in /  1016.8 hPa NE 2 mph /  3.2 km/h 2 mph /  3.2 km/h 91 % 0 in /  0.0 mm
08:22 65.5 °F /  18.6 °C 62.8 °F /  17.1 °C 30 in /  1017.2 hPa NNE 1 mph /  1.6 km/h 3 mph /  4.8 km/h 91 % 0 in /  0.0 mm
08:32 66 °F /  18.9 °C 63.3 °F /  17.4 °C 30 in /  1017.2 hPa Calm   2 mph /  3.2 km/h 91 % 0 in /  0.0 mm
08:37 66.4 °F /  19.1 °C 63.3 °F /  17.4 °C 30 in /  1017.2 hPa Calm   2 mph /  3.2 km/h 90 % 0 in /  0.0 mm
08:42 66.9 °F /  19.4 °C 63.9 °F /  17.7 °C 30 in /  1017.2 hPa Calm   1 mph /  1.6 km/h 90 % 0 in /  0.0 mm
08:52 67.6 °F /  19.8 °C 64 °F /  17.8 °C 30 in /  1017.2 hPa NNE 1 mph /  1.6 km/h 1 mph /  1.6 km/h 88 % 0 in /  0.0 mm
09:02 68.4 °F /  20.2 °C 64.4 °F /  18.0 °C 30 in /  1017.2 hPa Calm   2 mph /  3.2 km/h 87 % 0 in /  0.0 mm
09:12 69.1 °F /  20.6 °C 64.8 °F /  18.2 °C 30 in /  1017.2 hPa Calm   3 mph /  4.8 km/h 86 % 0 in /  0.0 mm
09:17 69.4 °F /  20.8 °C 65.1 °F /  18.4 °C 30 in /  1017.2 hPa North 1 mph /  1.6 km/h 3 mph /  4.8 km/h 86 % 0 in /  0.0 mm
09:22 69.6 °F /  20.9 °C 64.9 °F /  18.3 °C 30 in /  1017.2 hPa NE 3 mph /  4.8 km/h 3 mph /  4.8 km/h 85 % 0 in /  0.0 mm
09:32 70 °F /  21.1 °C 65.3 °F /  18.5 °C 30 in /  1017.2 hPa Calm   4 mph /  6.4 km/h 85 % 0 in /  0.0 mm
09:37 70.5 °F /  21.4 °C 65.8 °F /  18.8 °C 30 in /  1017.2 hPa ENE 1 mph /  1.6 km/h 4 mph /  6.4 km/h 85 % 0 in /  0.0 mm
09:42 70.9 °F /  21.6 °C 65.8 °F /  18.8 °C 30.1 in /  1017.5 hPa ENE 1 mph /  1.6 km/h 4 mph /  6.4 km/h 84 % 0 in /  0.0 mm
09:47 71.1 °F /  21.7 °C 66 °F /  18.9 °C 30.1 in /  1017.5 hPa NE 2 mph /  3.2 km/h 4 mph /  6.4 km/h 84 % 0 in /  0.0 mm
09:52 71.6 °F /  22.0 °C 66.2 °F /  19.0 °C 30.1 in /  1017.5 hPa NE 2 mph /  3.2 km/h 3 mph /  4.8 km/h 83 % 0 in /  0.0 mm
10:02 72.1 °F /  22.3 °C 66.7 °F /  19.3 °C 30.1 in /  1017.5 hPa Calm   5 mph /  8.0 km/h 83 % 0 in /  0.0 mm
10:12 72.9 °F /  22.7 °C 66.7 °F /  19.3 °C 30.1 in /  1017.5 hPa NE 2 mph /  3.2 km/h 5 mph /  8.0 km/h 81 % 0 in /  0.0 mm
10:17 73.4 °F /  23.0 °C 66.9 °F /  19.4 °C 30.1 in /  1017.8 hPa ENE 2 mph /  3.2 km/h 5 mph /  8.0 km/h 80 % 0 in /  0.0 mm
10:22 73.8 °F /  23.2 °C 66.9 °F /  19.4 °C 30.1 in /  1017.8 hPa ENE 2 mph /  3.2 km/h 4 mph /  6.4 km/h 79 % 0 in /  0.0 mm
10:32 74.5 °F /  23.6 °C 67.1 °F /  19.5 °C 30.1 in /  1017.8 hPa East 1 mph /  1.6 km/h 4 mph /  6.4 km/h 78 % 0 in /  0.0 mm
10:37 74.7 °F /  23.7 °C 67.3 °F /  19.6 °C 30.1 in /  1018.2 hPa NE 1 mph /  1.6 km/h 4 mph /  6.4 km/h 78 % 0 in /  0.0 mm
10:42 75.2 °F /  24.0 °C 67.1 °F /  19.5 °C 30.1 in /  1018.2 hPa NE 7 mph /  11.3 km/h 7 mph /  11.3 km/h 76 % 0 in /  0.0 mm
10:52 75.6 °F /  24.2 °C 67.5 °F /  19.7 °C 30.1 in /  1018.2 hPa North 6 mph /  9.7 km/h 7 mph /  11.3 km/h 76 % 0 in /  0.0 mm
10:57 75.7 °F /  24.3 °C 67.6 °F /  19.8 °C 30.1 in /  1018.2 hPa NNE 6 mph /  9.7 km/h 7 mph /  11.3 km/h 76 % 0 in /  0.0 mm
11:02 75.9 °F /  24.4 °C 67.1 °F /  19.5 °C 30.1 in /  1018.2 hPa ENE 4 mph /  6.4 km/h 10 mph /  16.1 km/h 74 % 0 in /  0.0 mm
11:12 76.1 °F /  24.5 °C 67.3 °F /  19.6 °C 30.1 in /  1018.2 hPa North 5 mph /  8.0 km/h 16 mph /  25.7 km/h 74 % 0 in /  0.0 mm
11:17 76.3 °F /  24.6 °C 67.5 °F /  19.7 °C 30.1 in /  1018.2 hPa NNE 8 mph /  12.9 km/h 16 mph /  25.7 km/h 74 % 0 in /  0.0 mm
11:27 76.5 °F /  24.7 °C 68 °F /  20.0 °C 30.1 in /  1018.2 hPa ENE 3 mph /  4.8 km/h 15 mph /  24.1 km/h 75 % 0 in /  0.0 mm
11:32 76.6 °F /  24.8 °C 67.6 °F /  19.8 °C 30.1 in /  1018.2 hPa WNW 5 mph /  8.0 km/h 11 mph /  17.7 km/h 74 % 0 in /  0.0 mm
11:42 76.8 °F /  24.9 °C 67.1 °F /  19.5 °C 30.1 in /  1018.5 hPa NE 5 mph /  8.0 km/h 10 mph /  16.1 km/h 72 % 0 in /  0.0 mm
11:52 76.8 °F /  24.9 °C 67.1 °F /  19.5 °C 30.1 in /  1018.2 hPa NNE 4 mph /  6.4 km/h 11 mph /  17.7 km/h 72 % 0 in /  0.0 mm
11:57 76.8 °F /  24.9 °C 67.5 °F /  19.7 °C 30.1 in /  1018.2 hPa Calm   11 mph /  17.7 km/h 73 % 0 in /  0.0 mm
12:02 77 °F /  25.0 °C 67.3 °F /  19.6 °C 30.1 in /  1018.2 hPa ENE 5 mph /  8.0 km/h 11 mph /  17.7 km/h 72 % 0 in /  0.0 mm
12:12 77.2 °F /  25.1 °C 67.5 °F /  19.7 °C 30.1 in /  1018.2 hPa NNW 6 mph /  9.7 km/h 12 mph /  19.3 km/h 72 % 0 in /  0.0 mm
12:17 77.5 °F /  25.3 °C 67.8 °F /  19.9 °C 30.1 in /  1017.8 hPa NE 4 mph /  6.4 km/h 12 mph /  19.3 km/h 72 % 0 in /  0.0 mm
12:22 77.9 °F /  25.5 °C 68.2 °F /  20.1 °C 30.1 in /  1017.8 hPa ENE 4 mph /  6.4 km/h 9 mph /  14.5 km/h 72 % 0 in /  0.0 mm
12:32 78.1 °F /  25.6 °C 68.4 °F /  20.2 °C 30.1 in /  1017.8 hPa NE 4 mph /  6.4 km/h 9 mph /  14.5 km/h 72 % 0 in /  0.0 mm
12:42 78.6 °F /  25.9 °C 68 °F /  20.0 °C 30.1 in /  1017.8 hPa NE 4 mph /  6.4 km/h 8 mph /  12.9 km/h 70 % 0 in /  0.0 mm
12:47 79 °F /  26.1 °C 68 °F /  20.0 °C 30.1 in /  1017.8 hPa NNE 6 mph /  9.7 km/h 8 mph /  12.9 km/h 69 % 0 in /  0.0 mm
12:57 80.2 °F /  26.8 °C 68.4 °F /  20.2 °C 30.1 in /  1017.8 hPa NE 4 mph /  6.4 km/h 10 mph /  16.1 km/h 67 % 0 in /  0.0 mm
13:02 80.4 °F /  26.9 °C 68.5 °F /  20.3 °C 30.1 in /  1017.8 hPa East 6 mph /  9.7 km/h 10 mph /  16.1 km/h 67 % 0 in /  0.0 mm
13:12 81.1 °F /  27.3 °C 68.2 °F /  20.1 °C 30.1 in /  1017.8 hPa NE 4 mph /  6.4 km/h 10 mph /  16.1 km/h 65 % 0 in /  0.0 mm
13:17 81.5 °F /  27.5 °C 67.6 °F /  19.8 °C 30.1 in /  1017.8 hPa North 3 mph /  4.8 km/h 10 mph /  16.1 km/h 63 % 0 in /  0.0 mm
13:22 82 °F /  27.8 °C 68.2 °F /  20.1 °C 30.1 in /  1017.8 hPa ENE 7 mph /  11.3 km/h 9 mph /  14.5 km/h 63 % 0 in /  0.0 mm
13:32 82 °F /  27.8 °C 67.3 °F /  19.6 °C 30.1 in /  1017.5 hPa NNE 2 mph /  3.2 km/h 10 mph /  16.1 km/h 61 % 0 in /  0.0 mm
13:42 83.5 °F /  28.6 °C 68.2 °F /  20.1 °C 30.1 in /  1017.5 hPa NE 5 mph /  8.0 km/h 6 mph /  9.7 km/h 60 % 0 in /  0.0 mm
13:52 84.4 °F /  29.1 °C 68.5 °F /  20.3 °C 30 in /  1017.2 hPa SW 2 mph /  3.2 km/h 6 mph /  9.7 km/h 59 % 0 in /  0.0 mm
13:57 84.9 °F /  29.4 °C 68 °F /  20.0 °C 30 in /  1017.2 hPa ENE 4 mph /  6.4 km/h 6 mph /  9.7 km/h 57 % 0 in /  0.0 mm
14:02 84.7 °F /  29.3 °C 67.3 °F /  19.6 °C 30 in /  1017.2 hPa Calm   7 mph /  11.3 km/h 56 % 0 in /  0.0 mm
14:12 85.8 °F /  29.9 °C 67.3 °F /  19.6 °C 30 in /  1017.2 hPa SE 2 mph /  3.2 km/h 6 mph /  9.7 km/h 54 % 0 in /  0.0 mm
14:17 85.8 °F /  29.9 °C 68.4 °F /  20.2 °C 30 in /  1017.2 hPa Calm   6 mph /  9.7 km/h 56 % 0 in /  0.0 mm
14:22 86.4 °F /  30.2 °C 67.8 °F /  19.9 °C 30 in /  1017.2 hPa South 3 mph /  4.8 km/h 3 mph /  4.8 km/h 54 % 0 in /  0.0 mm
14:32 87.1 °F /  30.6 °C 67.3 °F /  19.6 °C 30 in /  1017.2 hPa SE 1 mph /  1.6 km/h 6 mph /  9.7 km/h 52 % 0 in /  0.0 mm
14:37 87.1 °F /  30.6 °C 67.3 °F /  19.6 °C 30 in /  1017.2 hPa East 2 mph /  3.2 km/h 6 mph /  9.7 km/h 52 % 0 in /  0.0 mm
14:42 87.1 °F /  30.6 °C 67.3 °F /  19.6 °C 30 in /  1017.2 hPa Calm   6 mph /  9.7 km/h 52 % 0 in /  0.0 mm
14:52 87.3 °F /  30.7 °C 66.4 °F /  19.1 °C 30 in /  1017.2 hPa SSE 3 mph /  4.8 km/h 6 mph /  9.7 km/h 50 % 0 in /  0.0 mm
15:02 87.1 °F /  30.6 °C 66.2 °F /  19.0 °C 30 in /  1017.2 hPa ENE 2 mph /  3.2 km/h 7 mph /  11.3 km/h 50 % 0 in /  0.0 mm
15:12 87.4 °F /  30.8 °C 65.8 °F /  18.8 °C 30 in /  1016.8 hPa WSW 4 mph /  6.4 km/h 7 mph /  11.3 km/h 49 % 0 in /  0.0 mm
15:17 87.6 °F /  30.9 °C 64.2 °F /  17.9 °C 30 in /  1016.8 hPa Calm   7 mph /  11.3 km/h 46 % 0 in /  0.0 mm
15:22 88.9 °F /  31.6 °C 66 °F /  18.9 °C 30 in /  1016.8 hPa SW 1 mph /  1.6 km/h 8 mph /  12.9 km/h 47 % 0 in /  0.0 mm
15:32 88.5 °F /  31.4 °C 65.1 °F /  18.4 °C 30 in /  1016.8 hPa WSW 1 mph /  1.6 km/h 8 mph /  12.9 km/h 46 % 0 in /  0.0 mm
15:42 88.3 °F /  31.3 °C 64.2 °F /  17.9 °C 30 in /  1016.5 hPa SW 1 mph /  1.6 km/h 8 mph /  12.9 km/h 45 % 0 in /  0.0 mm
15:47 88.5 °F /  31.4 °C 65.7 °F /  18.7 °C 30 in /  1016.5 hPa SW 6 mph /  9.7 km/h 8 mph /  12.9 km/h 47 % 0 in /  0.0 mm
15:52 88.5 °F /  31.4 °C 64.4 °F /  18.0 °C 30 in /  1016.5 hPa SW 3 mph /  4.8 km/h 8 mph /  12.9 km/h 45 % 0 in /  0.0 mm
15:57 88.5 °F /  31.4 °C 63.9 °F /  17.7 °C 30 in /  1016.5 hPa SW 2 mph /  3.2 km/h 8 mph /  12.9 km/h 44 % 0 in /  0.0 mm
16:02 88.9 °F /  31.6 °C 64.2 °F /  17.9 °C 30 in /  1016.5 hPa West 4 mph /  6.4 km/h 8 mph /  12.9 km/h 44 % 0 in /  0.0 mm
16:07 88.9 °F /  31.6 °C 64.2 °F /  17.9 °C 30 in /  1016.5 hPa WNW 2 mph /  3.2 km/h 8 mph /  12.9 km/h 44 % 0 in /  0.0 mm
16:12 89.1 °F /  31.7 °C 64.9 °F /  18.3 °C 30 in /  1016.5 hPa West 3 mph /  4.8 km/h 8 mph /  12.9 km/h 45 % 0 in /  0.0 mm
16:17 88.7 °F /  31.5 °C 64 °F /  17.8 °C 30 in /  1016.5 hPa Calm   8 mph /  12.9 km/h 44 % 0 in /  0.0 mm
16:22 89.4 °F /  31.9 °C 63.3 °F /  17.4 °C 30 in /  1016.5 hPa WNW 5 mph /  8.0 km/h 8 mph /  12.9 km/h 42 % 0 in /  0.0 mm
16:27 89.2 °F /  31.8 °C 63.1 °F /  17.3 °C 30 in /  1016.5 hPa WSW 4 mph /  6.4 km/h 7 mph /  11.3 km/h 42 % 0 in /  0.0 mm
16:32 89.6 °F /  32.0 °C 62.1 °F /  16.7 °C 30 in /  1016.1 hPa SSW 1 mph /  1.6 km/h 7 mph /  11.3 km/h 40 % 0 in /  0.0 mm
16:37 89.8 °F /  32.1 °C 61.5 °F /  16.4 °C 30 in /  1016.1 hPa WSW 2 mph /  3.2 km/h 6 mph /  9.7 km/h 39 % 0 in /  0.0 mm
16:42 89.8 °F /  32.1 °C 61.5 °F /  16.4 °C 30 in /  1016.1 hPa West 1 mph /  1.6 km/h 6 mph /  9.7 km/h 39 % 0 in /  0.0 mm
16:47 90.1 °F /  32.3 °C 62.6 °F /  17.0 °C 30 in /  1016.1 hPa SE 1 mph /  1.6 km/h 5 mph /  8.0 km/h 40 % 0 in /  0.0 mm
16:52 90.1 °F /  32.3 °C 60.4 °F /  15.8 °C 30 in /  1016.1 hPa WNW 4 mph /  6.4 km/h 4 mph /  6.4 km/h 37 % 0 in /  0.0 mm
16:57 89.8 °F /  32.1 °C 60.8 °F /  16.0 °C 30 in /  1016.1 hPa NW 1 mph /  1.6 km/h 7 mph /  11.3 km/h 38 % 0 in /  0.0 mm
17:02 90 °F /  32.2 °C 60.3 °F /  15.7 °C 30 in /  1016.1 hPa WNW 5 mph /  8.0 km/h 7 mph /  11.3 km/h 37 % 0 in /  0.0 mm
17:12 90 °F /  32.2 °C 61 °F /  16.1 °C 30 in /  1016.1 hPa WNW 2 mph /  3.2 km/h 7 mph /  11.3 km/h 38 % 0 in /  0.0 mm
17:17 90 °F /  32.2 °C 58.6 °F /  14.8 °C 30 in /  1016.1 hPa West 2 mph /  3.2 km/h 7 mph /  11.3 km/h 35 % 0 in /  0.0 mm
17:22 89.6 °F /  32.0 °C 59.9 °F /  15.5 °C 30 in /  1016.1 hPa West 5 mph /  8.0 km/h 5 mph /  8.0 km/h 37 % 0 in /  0.0 mm
17:32 89.4 °F /  31.9 °C 61.2 °F /  16.2 °C 30 in /  1016.1 hPa WNW 2 mph /  3.2 km/h 8 mph /  12.9 km/h 39 % 0 in /  0.0 mm
17:37 90 °F /  32.2 °C 60.3 °F /  15.7 °C 30 in /  1016.1 hPa West 1 mph /  1.6 km/h 6 mph /  9.7 km/h 37 % 0 in /  0.0 mm
17:42 89.8 °F /  32.1 °C 61.5 °F /  16.4 °C 30 in /  1016.1 hPa West 3 mph /  4.8 km/h 6 mph /  9.7 km/h 39 % 0 in /  0.0 mm
17:52 89.6 °F /  32.0 °C 61.3 °F /  16.3 °C 30 in /  1016.1 hPa WNW 2 mph /  3.2 km/h 5 mph /  8.0 km/h 39 % 0 in /  0.0 mm
17:57 89.4 °F /  31.9 °C 59.7 °F /  15.4 °C 30 in /  1016.1 hPa WNW 2 mph /  3.2 km/h 6 mph /  9.7 km/h 37 % 0 in /  0.0 mm
18:02 89.4 °F /  31.9 °C 60.4 °F /  15.8 °C 30 in /  1016.1 hPa WNW 1 mph /  1.6 km/h 6 mph /  9.7 km/h 38 % 0 in /  0.0 mm
18:12 89.4 °F /  31.9 °C 60.4 °F /  15.8 °C 30 in /  1016.1 hPa West 3 mph /  4.8 km/h 6 mph /  9.7 km/h 38 % 0 in /  0.0 mm
18:17 89.2 °F /  31.8 °C 59.5 °F /  15.3 °C 30 in /  1016.1 hPa WNW 4 mph /  6.4 km/h 7 mph /  11.3 km/h 37 % 0 in /  0.0 mm
18:22 89.4 °F /  31.9 °C 60.4 °F /  15.8 °C 30 in /  1016.1 hPa NW 2 mph /  3.2 km/h 7 mph /  11.3 km/h 38 % 0 in /  0.0 mm
18:32 89.1 °F /  31.7 °C 60.8 °F /  16.0 °C 30 in /  1016.1 hPa WNW 4 mph /  6.4 km/h 7 mph /  11.3 km/h 39 % 0 in /  0.0 mm
18:42 89.2 °F /  31.8 °C 61.7 °F /  16.5 °C 30 in /  1016.1 hPa WNW 2 mph /  3.2 km/h 6 mph /  9.7 km/h 40 % 0 in /  0.0 mm
18:47 89.1 °F /  31.7 °C 62.2 °F /  16.8 °C 30 in /  1016.1 hPa West 2 mph /  3.2 km/h 5 mph /  8.0 km/h 41 % 0 in /  0.0 mm
18:52 89.1 °F /  31.7 °C 62.2 °F /  16.8 °C 30 in /  1016.1 hPa NNW 3 mph /  4.8 km/h 5 mph /  8.0 km/h 41 % 0 in /  0.0 mm
18:57 88.9 °F /  31.6 °C 62.8 °F /  17.1 °C 30 in /  1016.1 hPa WNW 1 mph /  1.6 km/h 4 mph /  6.4 km/h 42 % 0 in /  0.0 mm
19:02 88.9 °F /  31.6 °C 62.8 °F /  17.1 °C 30 in /  1016.1 hPa WNW 3 mph /  4.8 km/h 4 mph /  6.4 km/h 42 % 0 in /  0.0 mm
19:12 88.3 °F /  31.3 °C 63.7 °F /  17.6 °C 30 in /  1016.1 hPa Calm   4 mph /  6.4 km/h 44 % 0 in /  0.0 mm
19:17 88.2 °F /  31.2 °C 63.5 °F /  17.5 °C 30 in /  1016.1 hPa WNW 1 mph /  1.6 km/h 4 mph /  6.4 km/h 44 % 0 in /  0.0 mm
19:22 88 °F /  31.1 °C 64 °F /  17.8 °C 30 in /  1016.1 hPa WNW 1 mph /  1.6 km/h 4 mph /  6.4 km/h 45 % 0 in /  0.0 mm
19:27 87.6 °F /  30.9 °C 63.7 °F /  17.6 °C 30 in /  1016.1 hPa Calm   3 mph /  4.8 km/h 45 % 0 in /  0.0 mm
19:32 87.4 °F /  30.8 °C 63.5 °F /  17.5 °C 30 in /  1016.1 hPa Calm   3 mph /  4.8 km/h 45 % 0 in /  0.0 mm
19:37 87.1 °F /  30.6 °C 63.9 °F /  17.7 °C 30 in /  1016.5 hPa NW 1 mph /  1.6 km/h 3 mph /  4.8 km/h 46 % 0 in /  0.0 mm
19:42 86.7 °F /  30.4 °C 64 °F /  17.8 °C 30 in /  1016.5 hPa NW 1 mph /  1.6 km/h 3 mph /  4.8 km/h 47 % 0 in /  0.0 mm
19:47 86.5 °F /  30.3 °C 63.9 °F /  17.7 °C 30 in /  1016.5 hPa NNW 1 mph /  1.6 km/h 2 mph /  3.2 km/h 47 % 0 in /  0.0 mm
19:52 86.4 °F /  30.2 °C 63.7 °F /  17.6 °C 30 in /  1016.5 hPa NNW 1 mph /  1.6 km/h 2 mph /  3.2 km/h 47 % 0 in /  0.0 mm
20:02 85.6 °F /  29.8 °C 64.2 °F /  17.9 °C 30 in /  1016.5 hPa North 3 mph /  4.8 km/h 3 mph /  4.8 km/h 49 % 0 in /  0.0 mm
20:12 84.7 °F /  29.3 °C 64.6 °F /  18.1 °C 30 in /  1016.5 hPa Calm   3 mph /  4.8 km/h 51 % 0 in /  0.0 mm
20:17 84.4 °F /  29.1 °C 65.3 °F /  18.5 °C 30 in /  1016.5 hPa North 1 mph /  1.6 km/h 5 mph /  8.0 km/h 53 % 0 in /  0.0 mm
20:22 83.8 °F /  28.8 °C 66 °F /  18.9 °C 30 in /  1016.8 hPa North 4 mph /  6.4 km/h 6 mph /  9.7 km/h 55 % 0 in /  0.0 mm
20:32 82.9 °F /  28.3 °C 66.2 °F /  19.0 °C 30 in /  1016.8 hPa NE 5 mph /  8.0 km/h 8 mph /  12.9 km/h 57 % 0 in /  0.0 mm
20:42 82.4 °F /  28.0 °C 66.2 °F /  19.0 °C 30 in /  1016.8 hPa NNE 2 mph /  3.2 km/h 9 mph /  14.5 km/h 58 % 0 in /  0.0 mm
20:47 82 °F /  27.8 °C 65.8 °F /  18.8 °C 30 in /  1016.8 hPa NE 1 mph /  1.6 km/h 9 mph /  14.5 km/h 58 % 0 in /  0.0 mm
20:52 81.9 °F /  27.7 °C 66.2 °F /  19.0 °C 30 in /  1016.8 hPa NE 2 mph /  3.2 km/h 9 mph /  14.5 km/h 59 % 0 in /  0.0 mm
20:57 81.5 °F /  27.5 °C 66.2 °F /  19.0 °C 30 in /  1016.8 hPa NE 2 mph /  3.2 km/h 7 mph /  11.3 km/h 60 % 0 in /  0.0 mm
21:02 81 °F /  27.2 °C 65.8 °F /  18.8 °C 30 in /  1016.8 hPa NNW 3 mph /  4.8 km/h 7 mph /  11.3 km/h 60 % 0 in /  0.0 mm
21:12 80.2 °F /  26.8 °C 66 °F /  18.9 °C 30 in /  1017.2 hPa NW 2 mph /  3.2 km/h 7 mph /  11.3 km/h 62 % 0 in /  0.0 mm
21:17 80.1 °F /  26.7 °C 65.8 °F /  18.8 °C 30 in /  1016.8 hPa NNE 2 mph /  3.2 km/h 4 mph /  6.4 km/h 62 % 0 in /  0.0 mm
21:22 79.7 °F /  26.5 °C 65.5 °F /  18.6 °C 30 in /  1017.2 hPa ENE 1 mph /  1.6 km/h 4 mph /  6.4 km/h 62 % 0 in /  0.0 mm
21:32 79.2 °F /  26.2 °C 65.5 °F /  18.6 °C 30 in /  1017.2 hPa NNW 3 mph /  4.8 km/h 5 mph /  8.0 km/h 63 % 0 in /  0.0 mm
21:37 79 °F /  26.1 °C 65.3 °F /  18.5 °C 30 in /  1017.2 hPa NNE 2 mph /  3.2 km/h 4 mph /  6.4 km/h 63 % 0 in /  0.0 mm
21:42 78.6 °F /  25.9 °C 64.9 °F /  18.3 °C 30 in /  1017.2 hPa NNW 1 mph /  1.6 km/h 4 mph /  6.4 km/h 63 % 0 in /  0.0 mm
21:47 78.4 °F /  25.8 °C 65.3 °F /  18.5 °C 30 in /  1017.2 hPa NE 1 mph /  1.6 km/h 4 mph /  6.4 km/h 64 % 0 in /  0.0 mm
21:52 78.3 °F /  25.7 °C 65.1 °F /  18.4 °C 30 in /  1017.2 hPa North 3 mph /  4.8 km/h 4 mph /  6.4 km/h 64 % 0 in /  0.0 mm
22:02 78.1 °F /  25.6 °C 64.9 °F /  18.3 °C 30.1 in /  1017.5 hPa North 5 mph /  8.0 km/h 6 mph /  9.7 km/h 64 % 0 in /  0.0 mm
22:12 77.7 °F /  25.4 °C 65.5 °F /  18.6 °C 30.1 in /  1017.8 hPa NNE 5 mph /  8.0 km/h 6 mph /  9.7 km/h 66 % 0 in /  0.0 mm
22:17 77.5 °F /  25.3 °C 65.7 °F /  18.7 °C 30.1 in /  1017.5 hPa North 4 mph /  6.4 km/h 7 mph /  11.3 km/h 67 % 0 in /  0.0 mm
22:27 77.4 °F /  25.2 °C 66.4 °F /  19.1 °C 30.1 in /  1017.5 hPa North 3 mph /  4.8 km/h 10 mph /  16.1 km/h 69 % 0 in /  0.0 mm
22:32 77.4 °F /  25.2 °C 66.4 °F /  19.1 °C 30.1 in /  1017.8 hPa NE 4 mph /  6.4 km/h 10 mph /  16.1 km/h 69 % 0 in /  0.0 mm
22:42 77.4 °F /  25.2 °C 66.7 °F /  19.3 °C 30.1 in /  1017.8 hPa NNE 7 mph /  11.3 km/h 10 mph /  16.1 km/h 70 % 0 in /  0.0 mm
22:47 77.4 °F /  25.2 °C 67.3 °F /  19.6 °C 30.1 in /  1017.8 hPa NNE 5 mph /  8.0 km/h 11 mph /  17.7 km/h 71 % 0 in /  0.0 mm
22:57 76.8 °F /  24.9 °C 66.7 °F /  19.3 °C 30.1 in /  1017.8 hPa NNW 1 mph /  1.6 km/h 10 mph /  16.1 km/h 71 % 0 in /  0.0 mm
23:02 76.6 °F /  24.8 °C 66.9 °F /  19.4 °C 30.1 in /  1017.8 hPa NNE 3 mph /  4.8 km/h 10 mph /  16.1 km/h 72 % 0 in /  0.0 mm
23:07 76.5 °F /  24.7 °C 67.1 °F /  19.5 °C 30.1 in /  1017.8 hPa Calm   9 mph /  14.5 km/h 73 % 0 in /  0.0 mm
23:12 76.3 °F /  24.6 °C 66.9 °F /  19.4 °C 30.1 in /  1017.8 hPa Calm   9 mph /  14.5 km/h 73 % 0 in /  0.0 mm
23:17 75.9 °F /  24.4 °C 66.6 °F /  19.2 °C 30.1 in /  1017.8 hPa Calm   8 mph /  12.9 km/h 73 % 0 in /  0.0 mm
23:22 75.7 °F /  24.3 °C 66.9 °F /  19.4 °C 30.1 in /  1017.8 hPa NE 2 mph /  3.2 km/h 8 mph /  12.9 km/h 74 % 0 in /  0.0 mm
23:27 75.6 °F /  24.2 °C 66.7 °F /  19.3 °C 30.1 in /  1017.8 hPa NE 2 mph /  3.2 km/h 5 mph /  8.0 km/h 74 % 0 in /  0.0 mm
23:32 75.4 °F /  24.1 °C 66.9 °F /  19.4 °C 30.1 in /  1017.8 hPa ENE 2 mph /  3.2 km/h 5 mph /  8.0 km/h 75 % 0 in /  0.0 mm
23:42 75 °F /  23.9 °C 66.6 °F /  19.2 °C 30.1 in /  1017.8 hPa NE 4 mph /  6.4 km/h 5 mph /  8.0 km/h 75 % 0 in /  0.0 mm
23:47 74.8 °F /  23.8 °C 66.4 °F /  19.1 °C 30.1 in /  1017.8 hPa NNW 2 mph /  3.2 km/h 6 mph /  9.7 km/h 75 % 0 in /  0.0 mm
23:52 74.8 °F /  23.8 °C 66.7 °F /  19.3 °C 30.1 in /  1017.8 hPa Calm   6 mph /  9.7 km/h 76 % 0 in /  0.0 mm
23:57 74.8 °F /  23.8 °C 66.7 °F /  19.3 °C 30.1 in /  1017.8 hPa NE 2 mph /  3.2 km/h 7 mph /  11.3 km/h 76 % 0 in /  0.0 mm
Meteo18
Compliments of Weather Underground - 4 mb

Script developed by  Jim McMurry - jmcmurry@mwt.net Adapted for the template by  Wim van der Kuil - Leuven-Template.eu

You find our weather info also at:

European Weather Network

Weather Underground

Equipment we use:

Weather-station
Davis Vue

Weather-program
Meteohub

Weather-server
Raspberry PI 2 B+

Provider
1 and 1

Davis Vue

Meteohub

Raspberry PI 2 B+

1 and 1